Sunflower Pearl — JD2496 — position and weather

sailwx.info

Track history (hours):
 
Tides and Currents Weather Stations Pressure Air Temp Water Temp Dewpoint Dewpoint Depression Visibility Wind Speed Wind Dir Waves Ship Positions

Sunflower Pearl

Last reported at 2017-Nov-17 12:09 UTC. Time now 2017-Nov-18 16:02 UTC.
Position N 34°36' E 134°53'.

Length 166 m; draft 6 m.

Type: Passenger vessel. MMSI: 431000406.

Date/timePositionNaut miles runAvg speedWind from/ knotsBaromVisibWave heightAir tempDewpointWater temp
2017-Nov-17 12:09N 34°36' E 134°53'421.0
2017-Nov-17 11:57N 34°37' E 134°58'919.7
2017-Nov-17 11:30N 34°36' E 135°08'917.7
2017-Nov-17 11:00N 34°40' E 135°18'2 3.3
2017-Nov-17 10:30N 34°42' E 135°17'0 0.0
2017-Nov-17 10:00N 34°42' E 135°17'0 0.0
2017-Nov-17 09:30N 34°42' E 135°17'0 0.0
2017-Nov-17 08:58N 34°42' E 135°17'0 0.0
2017-Nov-17 08:22N 34°42' E 135°17'0 0.0
2017-Nov-17 07:46N 34°42' E 135°17'0 0.0
2017-Nov-17 07:28N 34°42' E 135°17'0 0.0
2017-Nov-17 06:58N 34°42' E 135°17'0 0.0
2017-Nov-17 06:22N 34°42' E 135°17'0 0.0
2017-Nov-17 05:58N 34°42' E 135°17'0 0.0
2017-Nov-17 05:28N 34°42' E 135°17'0 0.0
2017-Nov-17 04:58N 34°42' E 135°17'0 0.0
2017-Nov-17 04:28N 34°42' E 135°17'0 0.0
2017-Nov-17 03:58N 34°42' E 135°17'0 0.0
2017-Nov-17 03:22N 34°42' E 135°17'0 0.0
2017-Nov-17 02:52N 34°42' E 135°17'0 0.0
2017-Nov-17 02:28N 34°42' E 135°17'0 0.0
2017-Nov-17 01:46N 34°42' E 135°17'0 0.0
2017-Nov-17 01:28N 34°42' E 135°17'0 0.0
2017-Nov-17 00:58N 34°42' E 135°17'0 0.0
2017-Nov-17 00:22N 34°42' E 135°17'0 0.0
2017-Nov-16 23:58N 34°42' E 135°17'0 0.0
2017-Nov-16 23:28N 34°42' E 135°17'0 0.0
2017-Nov-16 22:58N 34°42' E 135°17'0 0.0
2017-Nov-16 22:10N 34°42' E 135°17'0 0.0
2017-Nov-16 21:58N 34°42' E 135°17'0 0.0
2017-Nov-16 21:30N 34°42' E 135°17'4 8.1
2017-Nov-16 21:00N 34°38' E 135°17'1019.9
2017-Nov-16 20:30N 34°35' E 135°06'917.2
2017-Nov-16 20:00N 34°36' E 134°55'6 0.2
2017-Nov-15 11:36N 34°34' E 134°48'421.2
2017-Nov-15 11:24N 34°35' E 134°53'818.8
2017-Nov-15 10:59N 34°37' E 135°02'918.8
2017-Nov-15 10:30N 34°37' E 135°13'612.1
2017-Nov-15 10:01N 34°42' E 135°17'0 0.0
2017-Nov-15 09:31N 34°42' E 135°17'0 0.0
2017-Nov-15 09:00N 34°42' E 135°17'0 0.0
2017-Nov-15 08:30N 34°42' E 135°17'0 0.0
2017-Nov-15 08:01N 34°42' E 135°17'0 0.0
2017-Nov-15 07:31N 34°42' E 135°17'0 0.0
2017-Nov-15 07:00N 34°42' E 135°17'0 0.0
2017-Nov-15 06:31N 34°42' E 135°17'0 0.0
2017-Nov-15 06:01N 34°42' E 135°17'0 0.0
2017-Nov-15 05:30N 34°42' E 135°17'0 0.0
2017-Nov-15 05:01N 34°42' E 135°17'0 0.0
2017-Nov-15 04:31N 34°42' E 135°17'0 0.0
2017-Nov-15 04:01N 34°42' E 135°17'0 0.0
2017-Nov-15 03:31N 34°42' E 135°17'0 0.0
2017-Nov-15 03:01N 34°42' E 135°17'0 0.0
2017-Nov-15 02:31N 34°42' E 135°17'0 0.0
2017-Nov-15 02:01N 34°42' E 135°17'0 0.0
2017-Nov-15 01:31N 34°42' E 135°17'0 0.0
2017-Nov-15 01:01N 34°42' E 135°17'0 0.0
2017-Nov-15 00:30N 34°42' E 135°17'0 0.0
2017-Nov-15 00:01N 34°42' E 135°17'0 0.0
2017-Nov-14 23:31N 34°42' E 135°17'0 0.0
2017-Nov-14 23:00N 34°42' E 135°17'0 0.0
2017-Nov-14 22:31N 34°42' E 135°17'0 0.0
2017-Nov-14 22:01N 34°42' E 135°17'0 0.3
2017-Nov-14 21:31N 34°42' E 135°17'714.3
2017-Nov-14 21:00N 34°35' E 135°13'1019.3
2017-Nov-14 20:30N 34°37' E 135°02'14 0.3
2017-Nov-13 01:57N 34°42' E 135°17'0 0.0
2017-Nov-13 01:27N 34°42' E 135°17'0 0.0
2017-Nov-13 00:57N 34°42' E 135°17'0 0.0
2017-Nov-13 00:09N 34°42' E 135°17'0 0.0
2017-Nov-12 23:57N 34°42' E 135°17'0 0.0
2017-Nov-12 23:27N 34°42' E 135°17'0 0.0
2017-Nov-12 22:45N 34°42' E 135°17'0 0.0
2017-Nov-12 22:27N 34°42' E 135°17'0 0.0
2017-Nov-12 21:57N 34°42' E 135°17'0 0.4
2017-Nov-12 21:30N 34°42' E 135°17'713.8
2017-Nov-12 21:01N 34°36' E 135°14'1120.6
2017-Nov-12 20:30N 34°37' E 135°01'8 0.3
2017-Nov-11 12:27N 34°35' E 134°51'817.9
2017-Nov-11 12:00N 34°38' E 135°00'815.4
2017-Nov-11 11:30N 34°36' E 135°09'917.5
2017-Nov-11 11:00N 34°41' E 135°18'2 3.2
2017-Nov-11 10:30N 34°42' E 135°17'0 0.0
2017-Nov-11 10:00N 34°42' E 135°17'0 0.0
2017-Nov-11 09:30N 34°42' E 135°17'0 0.0
2017-Nov-11 08:53N 34°42' E 135°17'0 0.0
2017-Nov-11 08:29N 34°42' E 135°17'0 0.0
2017-Nov-11 07:59N 34°42' E 135°17'0 0.0
2017-Nov-11 07:23N 34°42' E 135°17'0 0.0
2017-Nov-11 06:59N 34°42' E 135°17'0 0.0
2017-Nov-11 06:29N 34°42' E 135°17'0 0.0
2017-Nov-11 05:59N 34°42' E 135°17'0 0.0
2017-Nov-11 05:29N 34°42' E 135°17'0 0.0
2017-Nov-11 04:59N 34°42' E 135°17'0 0.0
2017-Nov-11 04:17N 34°42' E 135°17'0 0.0
2017-Nov-11 03:53N 34°42' E 135°17'0 0.0
2017-Nov-11 03:17N 34°42' E 135°17'0 0.0
2017-Nov-11 02:59N 34°42' E 135°17'0 0.0
2017-Nov-11 02:29N 34°42' E 135°17'0 0.0
2017-Nov-11 01:59N 34°42' E 135°17'0 0.0
2017-Nov-11 01:29N 34°42' E 135°17'0 0.0
2017-Nov-11 00:53N 34°42' E 135°17'0 0.0
2017-Nov-11 00:29N 34°42' E 135°17'0 0.0
2017-Nov-10 23:53N 34°42' E 135°17'0 0.0
2017-Nov-10 23:29N 34°42' E 135°17'0 0.0
2017-Nov-10 22:59N 34°42' E 135°17'2 4.7
2017-Nov-10 22:30N 34°40' E 135°18'815.6
2017-Nov-10 22:00N 34°35' E 135°11'1018.5
2017-Nov-10 21:29N 34°37' E 134°60'1120.1
2017-Nov-10 20:57N 34°32' E 134°48'3 0.1
2017-Nov-09 11:31N 34°34' E 134°51'220.6
2017-Nov-09 11:26N 34°35' E 134°53'818.6
2017-Nov-09 11:00N 34°37' E 135°02'919.1
2017-Nov-09 10:30N 34°37' E 135°14'611.4
2017-Nov-09 10:00N 34°42' E 135°17'0 0.0
2017-Nov-09 09:30N 34°42' E 135°17'0 0.0
2017-Nov-09 09:00N 34°42' E 135°17'0 0.0
2017-Nov-09 08:30N 34°42' E 135°17'0 0.0
2017-Nov-09 07:58N 34°42' E 135°17'0 0.0
2017-Nov-09 07:28N 34°42' E 135°17'0 0.0
2017-Nov-09 06:46N 34°42' E 135°17'0 0.0
2017-Nov-09 06:28N 34°42' E 135°17'0 0.0
2017-Nov-09 05:58N 34°42' E 135°17'0 0.0
2017-Nov-09 05:28N 34°42' E 135°17'0 0.0
2017-Nov-09 04:58N 34°42' E 135°17'0 0.0
2017-Nov-09 04:28N 34°42' E 135°17'0 0.0
2017-Nov-09 03:58N 34°42' E 135°17'0 0.0
2017-Nov-09 03:28N 34°42' E 135°17'0 0.0
2017-Nov-09 02:58N 34°42' E 135°17'0 0.0
2017-Nov-09 02:28N 34°42' E 135°17'0 0.0
2017-Nov-09 01:22N 34°42' E 135°17'0 0.0
2017-Nov-09 00:58N 34°42' E 135°17'0 0.0
2017-Nov-09 00:16N 34°42' E 135°17'0 0.0
2017-Nov-08 23:58N 34°42' E 135°17'0 0.0
2017-Nov-08 23:28N 34°42' E 135°17'0 0.0
2017-Nov-08 22:52N 34°42' E 135°17'0 0.0
2017-Nov-08 22:16N 34°42' E 135°17'0 0.0
2017-Nov-08 21:46N 34°42' E 135°17'0 0.1
2017-Nov-08 21:30N 34°42' E 135°17'510.3
2017-Nov-08 21:00N 34°37' E 135°16'918.8
2017-Nov-08 20:30N 34°34' E 135°05'1018.2
2017-Nov-08 19:59N 34°34' E 134°54'  
Track history (hours):
 
Tides and Currents Weather Stations Pressure Air Temp Water Temp Dewpoint Dewpoint Depression Visibility Wind Speed Wind Dir Waves Ship Positions

Sunflower Pearl

Last reported at 2017-Nov-17 12:09 UTC. Time now 2017-Nov-18 16:02 UTC.
Position N 34°36' E 134°53'.

Length 166 m; draft 6 m.

Type: Passenger vessel. MMSI: 431000406.

Date/timePositionNaut miles runAvg speedWind from/ knotsBaromVisibWave heightAir tempDewpointWater temp
2017-Nov-17 12:09N 34°36' E 134°53'421.0
2017-Nov-17 11:57N 34°37' E 134°58'919.7
2017-Nov-17 11:30N 34°36' E 135°08'917.7
2017-Nov-17 11:00N 34°40' E 135°18'2 3.3
2017-Nov-17 10:30N 34°42' E 135°17'0 0.0
2017-Nov-17 10:00N 34°42' E 135°17'0 0.0
2017-Nov-17 09:30N 34°42' E 135°17'0 0.0
2017-Nov-17 08:58N 34°42' E 135°17'0 0.0
2017-Nov-17 08:22N 34°42' E 135°17'0 0.0
2017-Nov-17 07:46N 34°42' E 135°17'0 0.0
2017-Nov-17 07:28N 34°42' E 135°17'0 0.0
2017-Nov-17 06:58N 34°42' E 135°17'0 0.0
2017-Nov-17 06:22N 34°42' E 135°17'0 0.0
2017-Nov-17 05:58N 34°42' E 135°17'0 0.0
2017-Nov-17 05:28N 34°42' E 135°17'0 0.0
2017-Nov-17 04:58N 34°42' E 135°17'0 0.0
2017-Nov-17 04:28N 34°42' E 135°17'0 0.0
2017-Nov-17 03:58N 34°42' E 135°17'0 0.0
2017-Nov-17 03:22N 34°42' E 135°17'0 0.0
2017-Nov-17 02:52N 34°42' E 135°17'0 0.0
2017-Nov-17 02:28N 34°42' E 135°17'0 0.0
2017-Nov-17 01:46N 34°42' E 135°17'0 0.0
2017-Nov-17 01:28N 34°42' E 135°17'0 0.0
2017-Nov-17 00:58N 34°42' E 135°17'0 0.0
2017-Nov-17 00:22N 34°42' E 135°17'0 0.0
2017-Nov-16 23:58N 34°42' E 135°17'0 0.0
2017-Nov-16 23:28N 34°42' E 135°17'0 0.0
2017-Nov-16 22:58N 34°42' E 135°17'0 0.0
2017-Nov-16 22:10N 34°42' E 135°17'0 0.0
2017-Nov-16 21:58N 34°42' E 135°17'0 0.0
2017-Nov-16 21:30N 34°42' E 135°17'4 8.1
2017-Nov-16 21:00N 34°38' E 135°17'1019.9
2017-Nov-16 20:30N 34°35' E 135°06'917.2
2017-Nov-16 20:00N 34°36' E 134°55'6 0.2
2017-Nov-15 11:36N 34°34' E 134°48'421.2
2017-Nov-15 11:24N 34°35' E 134°53'818.8
2017-Nov-15 10:59N 34°37' E 135°02'918.8
2017-Nov-15 10:30N 34°37' E 135°13'612.1
2017-Nov-15 10:01N 34°42' E 135°17'0 0.0
2017-Nov-15 09:31N 34°42' E 135°17'0 0.0
2017-Nov-15 09:00N 34°42' E 135°17'0 0.0
2017-Nov-15 08:30N 34°42' E 135°17'0 0.0
2017-Nov-15 08:01N 34°42' E 135°17'0 0.0
2017-Nov-15 07:31N 34°42' E 135°17'0 0.0
2017-Nov-15 07:00N 34°42' E 135°17'0 0.0
2017-Nov-15 06:31N 34°42' E 135°17'0 0.0
2017-Nov-15 06:01N 34°42' E 135°17'0 0.0
2017-Nov-15 05:30N 34°42' E 135°17'0 0.0
2017-Nov-15 05:01N 34°42' E 135°17'0 0.0
2017-Nov-15 04:31N 34°42' E 135°17'0 0.0
2017-Nov-15 04:01N 34°42' E 135°17'0 0.0
2017-Nov-15 03:31N 34°42' E 135°17'0 0.0
2017-Nov-15 03:01N 34°42' E 135°17'0 0.0
2017-Nov-15 02:31N 34°42' E 135°17'0 0.0
2017-Nov-15 02:01N 34°42' E 135°17'0 0.0
2017-Nov-15 01:31N 34°42' E 135°17'0 0.0
2017-Nov-15 01:01N 34°42' E 135°17'0 0.0
2017-Nov-15 00:30N 34°42' E 135°17'0 0.0
2017-Nov-15 00:01N 34°42' E 135°17'0 0.0
2017-Nov-14 23:31N 34°42' E 135°17'0 0.0
2017-Nov-14 23:00N 34°42' E 135°17'0 0.0
2017-Nov-14 22:31N 34°42' E 135°17'0 0.0
2017-Nov-14 22:01N 34°42' E 135°17'0 0.3
2017-Nov-14 21:31N 34°42' E 135°17'714.3
2017-Nov-14 21:00N 34°35' E 135°13'1019.3
2017-Nov-14 20:30N 34°37' E 135°02'14 0.3
2017-Nov-13 01:57N 34°42' E 135°17'0 0.0
2017-Nov-13 01:27N 34°42' E 135°17'0 0.0
2017-Nov-13 00:57N 34°42' E 135°17'0 0.0
2017-Nov-13 00:09N 34°42' E 135°17'0 0.0
2017-Nov-12 23:57N 34°42' E 135°17'0 0.0
2017-Nov-12 23:27N 34°42' E 135°17'0 0.0
2017-Nov-12 22:45N 34°42' E 135°17'0 0.0
2017-Nov-12 22:27N 34°42' E 135°17'0 0.0
2017-Nov-12 21:57N 34°42' E 135°17'0 0.4
2017-Nov-12 21:30N 34°42' E 135°17'713.8
2017-Nov-12 21:01N 34°36' E 135°14'1120.6
2017-Nov-12 20:30N 34°37' E 135°01'8 0.3
2017-Nov-11 12:27N 34°35' E 134°51'817.9
2017-Nov-11 12:00N 34°38' E 135°00'815.4
2017-Nov-11 11:30N 34°36' E 135°09'917.5
2017-Nov-11 11:00N 34°41' E 135°18'2 3.2
2017-Nov-11 10:30N 34°42' E 135°17'0 0.0
2017-Nov-11 10:00N 34°42' E 135°17'0 0.0
2017-Nov-11 09:30N 34°42' E 135°17'0 0.0
2017-Nov-11 08:53N 34°42' E 135°17'0 0.0
2017-Nov-11 08:29N 34°42' E 135°17'0 0.0
2017-Nov-11 07:59N 34°42' E 135°17'0 0.0
2017-Nov-11 07:23N 34°42' E 135°17'0 0.0
2017-Nov-11 06:59N 34°42' E 135°17'0 0.0
2017-Nov-11 06:29N 34°42' E 135°17'0 0.0
2017-Nov-11 05:59N 34°42' E 135°17'0 0.0
2017-Nov-11 05:29N 34°42' E 135°17'0 0.0
2017-Nov-11 04:59N 34°42' E 135°17'0 0.0
2017-Nov-11 04:17N 34°42' E 135°17'0 0.0
2017-Nov-11 03:53N 34°42' E 135°17'0 0.0
2017-Nov-11 03:17N 34°42' E 135°17'0 0.0
2017-Nov-11 02:59N 34°42' E 135°17'0 0.0
2017-Nov-11 02:29N 34°42' E 135°17'0 0.0
2017-Nov-11 01:59N 34°42' E 135°17'0 0.0
2017-Nov-11 01:29N 34°42' E 135°17'0 0.0
2017-Nov-11 00:53N 34°42' E 135°17'0 0.0
2017-Nov-11 00:29N 34°42' E 135°17'0 0.0
2017-Nov-10 23:53N 34°42' E 135°17'0 0.0
2017-Nov-10 23:29N 34°42' E 135°17'0 0.0
2017-Nov-10 22:59N 34°42' E 135°17'2 4.7
2017-Nov-10 22:30N 34°40' E 135°18'815.6
2017-Nov-10 22:00N 34°35' E 135°11'1018.5
2017-Nov-10 21:29N 34°37' E 134°60'1120.1
2017-Nov-10 20:57N 34°32' E 134°48'3 0.1
2017-Nov-09 11:31N 34°34' E 134°51'220.6
2017-Nov-09 11:26N 34°35' E 134°53'818.6
2017-Nov-09 11:00N 34°37' E 135°02'919.1
2017-Nov-09 10:30N 34°37' E 135°14'611.4
2017-Nov-09 10:00N 34°42' E 135°17'0 0.0
2017-Nov-09 09:30N 34°42' E 135°17'0 0.0
2017-Nov-09 09:00N 34°42' E 135°17'0 0.0
2017-Nov-09 08:30N 34°42' E 135°17'0 0.0
2017-Nov-09 07:58N 34°42' E 135°17'0 0.0
2017-Nov-09 07:28N 34°42' E 135°17'0 0.0
2017-Nov-09 06:46N 34°42' E 135°17'0 0.0
2017-Nov-09 06:28N 34°42' E 135°17'0 0.0
2017-Nov-09 05:58N 34°42' E 135°17'0 0.0
2017-Nov-09 05:28N 34°42' E 135°17'0 0.0
2017-Nov-09 04:58N 34°42' E 135°17'0 0.0
2017-Nov-09 04:28N 34°42' E 135°17'0 0.0
2017-Nov-09 03:58N 34°42' E 135°17'0 0.0
2017-Nov-09 03:28N 34°42' E 135°17'0 0.0
2017-Nov-09 02:58N 34°42' E 135°17'0 0.0
2017-Nov-09 02:28N 34°42' E 135°17'0 0.0
2017-Nov-09 01:22N 34°42' E 135°17'0 0.0
2017-Nov-09 00:58N 34°42' E 135°17'0 0.0
2017-Nov-09 00:16N 34°42' E 135°17'0 0.0
2017-Nov-08 23:58N 34°42' E 135°17'0 0.0
2017-Nov-08 23:28N 34°42' E 135°17'0 0.0
2017-Nov-08 22:52N 34°42' E 135°17'0 0.0
2017-Nov-08 22:16N 34°42' E 135°17'0 0.0
2017-Nov-08 21:46N 34°42' E 135°17'0 0.1
2017-Nov-08 21:30N 34°42' E 135°17'510.3
2017-Nov-08 21:00N 34°37' E 135°16'918.8
2017-Nov-08 20:30N 34°34' E 135°05'1018.2
2017-Nov-08 19:59N 34°34' E 134°54'  

Dump ship's entire track history